Time;durP1;ratioP1;P1;durP2;ratioP2;P2;SDS_P1;SDS_P2;PMS_P1;PMS_P2;Temp;Humidity;BMP_temperature;BMP_pressure;BME280_temperature;BME280_humidity;BME280_pressure;Samples;Min_cycle;Max_cycle;Signal;HPM_P1;HPM_P2
2023/05/26 00:05:16;;;;;;;5.97;3.93;;;;;;;-143.21;93.96;72292.31;4949619;28;20201;-77
2023/05/26 00:08:30;;;;;;;7.37;3.73;;;;;;;-143.21;93.38;72290.31;4968332;28;20217;-77
2023/05/26 00:11:43;;;;;;;8.03;3.30;;;;;;;-143.21;92.87;72296.28;4910718;29;20207;-78
2023/05/26 00:14:58;;;;;;;4.43;3.57;;;;;;;-143.21;92.86;72298.25;4821203;29;20210;-77
2023/05/26 00:18:14;;;;;;;4.60;3.37;;;;;;;-143.21;92.79;72288.34;4902102;29;20405;-75
2023/05/26 00:24:35;;;;;;;5.07;3.37;;;;;;;-143.21;91.98;72298.25;4961375;28;20209;-77
2023/05/26 00:27:02;;;;;;;5.53;3.00;;;;;;;-143.21;92.34;72296.28;4911104;29;20313;-77
2023/05/26 00:29:50;;;;;;;6.60;3.20;;;;;;;-143.21;91.95;72304.19;4910395;29;20211;-76
2023/05/26 00:32:52;;;;;;;10.67;3.00;;;;;;;-143.21;92.21;72318.09;4908837;29;20211;-75
2023/05/26 00:35:37;;;;;;;4.47;3.10;;;;;;;-143.21;92.76;72324.03;4910103;29;20261;-76
2023/05/26 00:38:22;;;;;;;4.30;2.90;;;;;;;-143.21;92.96;72324.03;4910510;29;20213;-76
2023/05/26 00:41:10;;;;;;;3.77;2.77;;;;;;;-143.21;92.82;72326.00;4909151;29;20269;-77
2023/05/26 00:43:52;;;;;;;4.23;2.83;;;;;;;-143.21;91.95;72318.09;4909545;29;20203;-78
2023/05/26 00:46:59;;;;;;;3.60;2.63;;;;;;;-143.21;91.76;72304.19;4947354;28;20201;-76
2023/05/26 00:49:54;;;;;;;3.67;2.80;;;;;;;-143.21;91.89;72312.13;4949951;29;20213;-77
2023/05/26 00:52:40;;;;;;;3.23;2.63;;;;;;;-143.21;91.24;72304.19;4944166;28;20584;-79
2023/05/26 00:55:43;;;;;;;4.70;2.90;;;;;;;-143.21;90.71;72320.06;4949067;29;20586;-78
2023/05/26 00:59:21;;;;;;;5.03;2.83;;;;;;;-143.21;91.12;72335.94;4950997;29;20652;-78
2023/05/26 01:04:45;;;;;;;5.77;2.80;;;;;;;-143.21;92.18;72353.78;4889338;28;20252;-78
2023/05/26 01:11:31;;;;;;;6.07;3.80;;;;;;;-143.21;93.32;72355.75;4922259;28;20198;-77
2023/05/26 01:14:54;;;;;;;6.00;3.60;;;;;;;-143.21;93.39;72353.78;4944305;29;20205;-77
2023/05/26 01:17:39;;;;;;;7.83;4.13;;;;;;;-143.21;93.24;72341.88;4827014;28;20738;-77
2023/05/26 01:20:58;;;;;;;7.30;4.63;;;;;;;-143.21;92.99;72341.88;4948988;29;20237;-77
2023/05/26 01:24:32;;;;;;;4.20;3.80;;;;;;;-143.21;92.46;72339.91;4949820;29;20210;-78
2023/05/26 01:27:46;;;;;;;4.57;3.37;;;;;;;-143.21;91.44;72339.91;4948006;28;20241;-79
2023/05/26 01:30:20;;;;;;;4.27;3.37;;;;;;;-143.21;90.91;72341.88;4948294;29;20205;-77
2023/05/26 01:33:07;;;;;;;3.27;2.93;;;;;;;-143.21;91.03;72343.88;4956347;28;20236;-76
2023/05/26 01:35:44;;;;;;;6.20;3.70;;;;;;;-143.21;91.71;72349.81;4966713;28;20287;-78
2023/05/26 01:38:16;;;;;;;7.53;3.90;;;;;;;-143.21;92.80;72347.84;4963214;28;20208;-76
2023/05/26 01:40:58;;;;;;;6.33;3.80;;;;;;;-143.21;92.81;72349.81;4967147;28;20204;-77
2023/05/26 01:43:40;;;;;;;4.47;3.50;;;;;;;-143.21;93.20;72353.78;4969778;28;20663;-76
2023/05/26 01:46:24;;;;;;;5.93;3.93;;;;;;;-143.21;93.23;72353.78;4969648;28;20211;-75
2023/05/26 01:48:59;;;;;;;5.53;3.90;;;;;;;-143.21;92.75;72345.84;4968631;28;20197;-77
2023/05/26 01:51:48;;;;;;;5.77;3.67;;;;;;;-143.21;92.57;72343.88;4966275;28;20207;-73
2023/05/26 01:54:43;;;;;;;7.73;3.90;;;;;;;-143.21;91.79;72339.91;4965235;28;20664;-78
2023/05/26 01:57:17;;;;;;;5.80;3.90;;;;;;;-143.21;92.20;72343.88;4959705;28;20208;-77
2023/05/26 01:59:48;;;;;;;7.73;3.70;;;;;;;-143.21;92.20;72349.81;4965043;28;20201;-75
2023/05/26 02:02:18;;;;;;;8.33;3.40;;;;;;;-143.21;91.49;72349.81;4965728;28;20234;-77
2023/05/26 02:04:45;;;;;;;5.50;3.67;;;;;;;-143.21;90.95;72345.84;4966490;28;20212;-77
2023/05/26 02:07:12;;;;;;;4.10;3.53;;;;;;;-143.21;90.53;72343.88;4968590;28;20227;-76
2023/05/26 02:09:39;;;;;;;5.93;3.30;;;;;;;-143.21;90.34;72343.88;4969413;28;20220;-78
2023/05/26 02:12:07;;;;;;;5.43;3.30;;;;;;;-143.21;91.40;72355.75;4963118;28;20292;-77
2023/05/26 02:14:33;;;;;;;4.87;3.13;;;;;;;-143.21;91.78;72367.66;4963266;28;20192;-77
2023/05/26 02:17:00;;;;;;;6.27;3.30;;;;;;;-143.21;92.06;72359.72;4968766;28;20200;-77
2023/05/26 02:19:29;;;;;;;4.30;3.70;;;;;;;-143.21;91.74;72363.69;4969473;28;20215;-76
2023/05/26 02:21:56;;;;;;;8.43;3.60;;;;;;;-143.21;91.50;72359.72;4968942;28;20219;-77
2023/05/26 02:24:23;;;;;;;4.23;3.70;;;;;;;-143.21;91.80;72359.72;4969945;28;20207;-77
2023/05/26 02:26:50;;;;;;;8.13;3.97;;;;;;;-143.21;91.28;72361.72;4969221;28;20223;-77
2023/05/26 02:29:16;;;;;;;7.20;3.90;;;;;;;-143.21;91.40;72365.69;4965723;28;20212;-78
2023/05/26 02:31:43;;;;;;;5.53;3.97;;;;;;;-143.21;91.71;72373.63;4969154;28;20588;-77
2023/05/26 02:34:10;;;;;;;4.77;3.57;;;;;;;-143.21;92.10;72389.47;4969038;28;20228;-77
2023/05/26 02:36:38;;;;;;;7.73;3.70;;;;;;;-143.21;92.60;72383.53;4966281;28;20216;-77
2023/05/26 02:39:05;;;;;;;6.00;4.00;;;;;;;-143.21;92.50;72383.53;4968919;28;20204;-76
2023/05/26 02:41:32;;;;;;;7.47;4.27;;;;;;;-143.21;92.26;72367.66;4969679;28;20361;-76
2023/05/26 02:43:59;;;;;;;5.37;3.70;;;;;;;-143.21;91.85;72375.59;4969095;28;20204;-76
2023/05/26 02:46:26;;;;;;;5.13;3.77;;;;;;;-143.21;91.60;72385.50;4969293;28;20307;-76
2023/05/26 02:48:53;;;;;;;6.93;4.37;;;;;;;-143.21;91.67;72387.50;4969399;28;20715;-76
2023/05/26 02:51:19;;;;;;;7.90;4.50;;;;;;;-143.21;92.13;72403.34;4965114;28;20212;-76
2023/05/26 02:53:48;;;;;;;6.33;4.27;;;;;;;-143.21;92.69;72403.34;4964307;28;20230;-76
2023/05/26 02:56:15;;;;;;;6.67;4.00;;;;;;;-143.21;93.32;72405.34;4963349;28;20672;-76
2023/05/26 02:58:43;;;;;;;6.77;4.00;;;;;;;-143.21;93.47;72407.31;4968795;28;20222;-76
2023/05/26 03:01:09;;;;;;;6.70;3.87;;;;;;;-143.21;93.57;72407.31;4966565;28;20215;-76
2023/05/26 03:03:36;;;;;;;6.43;4.27;;;;;;;-143.21;93.49;72407.31;4969318;28;20216;-76
2023/05/26 03:06:04;;;;;;;6.70;4.80;;;;;;;-143.21;93.38;72407.31;4968683;28;20225;-76
2023/05/26 03:08:31;;;;;;;8.07;5.00;;;;;;;-143.21;93.44;72403.34;4969111;28;20232;-76
2023/05/26 03:10:59;;;;;;;5.23;4.43;;;;;;;-143.21;93.61;72413.28;4968809;28;20335;-76
2023/05/26 03:13:26;;;;;;;7.50;4.77;;;;;;;-143.21;93.51;72407.31;4967571;28;20759;-77
2023/05/26 03:15:53;;;;;;;7.27;4.90;;;;;;;-143.21;93.69;72411.28;4967465;28;20201;-77
2023/05/26 03:18:20;;;;;;;7.63;4.80;;;;;;;-143.21;94.13;72411.28;4969045;28;20205;-77
2023/05/26 03:20:48;;;;;;;9.60;5.17;;;;;;;-143.21;94.32;72413.28;4967995;28;20205;-77
2023/05/26 03:23:19;;;;;;;8.57;5.60;;;;;;;-143.21;94.55;72403.34;4968756;28;20208;-76
2023/05/26 03:25:46;;;;;;;11.97;6.40;;;;;;;-143.21;94.35;72403.34;4969669;28;20208;-77
2023/05/26 03:28:14;;;;;;;10.07;6.10;;;;;;;-143.21;94.02;72399.41;4970272;28;20335;-77
2023/05/26 03:30:41;;;;;;;8.70;6.10;;;;;;;-143.21;93.62;72395.44;4972673;28;20201;-77
2023/05/26 03:33:07;;;;;;;10.90;5.90;;;;;;;-143.21;93.23;72401.38;4972094;28;20266;-78
2023/05/26 03:35:35;;;;;;;7.97;5.17;;;;;;;-143.21;93.10;72403.34;4969609;28;20248;-78
2023/05/26 03:38:02;;;;;;;7.97;5.00;;;;;;;-143.21;93.02;72419.22;4972797;28;20706;-78
2023/05/26 03:40:28;;;;;;;7.47;4.90;;;;;;;-143.21;93.09;72419.22;4971988;28;20225;-76
2023/05/26 03:42:55;;;;;;;9.00;5.90;;;;;;;-143.21;93.17;72429.16;4971928;28;20228;-77
2023/05/26 03:45:24;;;;;;;11.87;5.97;;;;;;;-143.21;93.13;72441.03;4972159;28;20197;-76
2023/05/26 03:47:50;;;;;;;12.47;9.30;;;;;;;-143.21;93.53;72435.09;4972002;28;20738;-76
2023/05/26 03:50:17;;;;;;;15.53;9.50;;;;;;;-143.21;93.43;72439.06;4971986;28;20734;-76
2023/05/26 03:52:44;;;;;;;12.53;7.40;;;;;;;-143.21;93.14;72435.09;4970750;28;20263;-76
2023/05/26 03:55:11;;;;;;;10.30;7.63;;;;;;;-143.21;92.77;72427.16;4971445;28;20679;-77
2023/05/26 03:57:38;;;;;;;12.40;7.07;;;;;;;-143.21;92.54;72423.19;4972093;28;20201;-78
2023/05/26 04:00:07;;;;;;;12.07;7.33;;;;;;;-143.21;92.82;72433.09;4969038;28;20291;-78
2023/05/26 04:02:35;;;;;;;11.60;7.40;;;;;;;-143.21;93.47;72431.13;4969352;28;20300;-77
2023/05/26 04:05:03;;;;;;;10.70;7.30;;;;;;;-143.21;93.80;72431.13;4968937;28;20204;-76
2023/05/26 04:07:30;;;;;;;10.37;7.03;;;;;;;-143.21;94.31;72423.19;4968016;28;20695;-74
2023/05/26 04:09:56;;;;;;;12.70;7.70;;;;;;;-143.21;93.67;72407.31;4971103;28;20212;-74
2023/05/26 04:12:23;;;;;;;10.67;7.50;;;;;;;-143.21;93.65;72405.34;4970743;28;20238;-75
2023/05/26 04:14:50;;;;;;;11.80;8.43;;;;;;;-143.21;94.15;72395.44;4970930;28;20212;-75
2023/05/26 04:17:17;;;;;;;18.93;9.63;;;;;;;-143.21;94.46;72395.44;4971253;28;20228;-76
2023/05/26 04:19:45;;;;;;;12.37;9.00;;;;;;;-143.21;93.15;72389.47;4968292;28;20198;-76
2023/05/26 04:22:12;;;;;;;14.20;8.70;;;;;;;-143.21;93.44;72397.41;4970857;28;20211;-76
2023/05/26 04:24:39;;;;;;;14.77;9.40;;;;;;;-143.21;93.78;72399.41;4970529;28;20582;-76
2023/05/26 04:27:36;;;;;;;12.83;9.23;;;;;;;-143.21;93.72;72401.38;4968156;28;20209;-77
2023/05/26 04:30:03;;;;;;;10.33;8.23;;;;;;;-143.21;94.11;72401.38;4946487;28;20194;-75
2023/05/26 04:32:33;;;;;;;11.13;7.80;;;;;;;-143.21;94.33;72399.41;4967727;28;20228;-75
2023/05/26 04:35:01;;;;;;;10.73;8.13;;;;;;;-143.21;93.98;72393.44;4968231;28;20212;-76
2023/05/26 04:37:32;;;;;;;10.70;8.03;;;;;;;-143.21;93.26;72389.47;4967779;28;20738;-75
2023/05/26 04:40:00;;;;;;;11.23;8.40;;;;;;;-143.21;93.78;72379.56;4967261;28;20280;-76
2023/05/26 04:42:27;;;;;;;12.20;8.70;;;;;;;-143.21;94.04;72377.56;4970069;28;20244;-76
2023/05/26 04:44:55;;;;;;;15.73;10.57;;;;;;;-143.21;94.07;72373.63;4965530;28;20205;-74
2023/05/26 04:47:22;;;;;;;13.47;10.13;;;;;;;-143.21;94.26;72365.69;4970476;28;20687;-76
2023/05/26 04:49:48;;;;;;;15.93;9.67;;;;;;;-143.21;93.73;72361.72;4970505;28;20671;-76
2023/05/26 04:52:17;;;;;;;14.60;9.33;;;;;;;-143.21;93.73;72365.69;4970426;28;20205;-76
2023/05/26 04:54:44;;;;;;;15.90;8.60;;;;;;;-143.21;93.34;72361.72;4968334;28;20209;-82
2023/05/26 04:57:10;;;;;;;13.13;7.83;;;;;;;-143.21;93.36;72371.63;4970144;28;20209;-81
2023/05/26 04:59:38;;;;;;;9.57;6.97;;;;;;;-143.21;93.30;72383.53;4971178;28;20208;-81
2023/05/26 05:02:05;;;;;;;12.23;7.17;;;;;;;-143.21;94.11;72391.47;4971733;28;20620;-82
2023/05/26 05:04:32;;;;;;;11.27;7.67;;;;;;;-143.21;94.37;72377.56;4972749;28;20209;-82
2023/05/26 05:06:59;;;;;;;12.33;7.50;;;;;;;-143.21;94.60;72367.66;4969360;28;20219;-82
2023/05/26 05:09:27;;;;;;;12.63;7.47;;;;;;;-143.21;94.44;72361.72;4971218;28;20260;-81
2023/05/26 05:11:54;;;;;;;9.83;7.40;;;;;;;-143.21;94.93;72355.75;4969488;28;20196;-80
2023/05/26 05:14:21;;;;;;;9.93;7.80;;;;;;;-143.21;95.14;72351.78;4970616;28;20975;-81
2023/05/26 05:16:48;;;;;;;12.53;8.30;;;;;;;-143.21;95.29;72345.84;4970561;28;20201;-81
2023/05/26 05:19:15;;;;;;;14.23;8.10;;;;;;;-143.21;94.94;72333.94;4964792;28;20205;-82
2023/05/26 05:21:41;;;;;;;11.00;8.33;;;;;;;-143.21;95.01;72328.00;4969387;28;20213;-81
2023/05/26 05:24:09;;;;;;;12.73;8.77;;;;;;;-143.21;94.96;72324.03;4971638;28;20232;-82
2023/05/26 05:26:39;;;;;;;12.80;8.30;;;;;;;-143.21;94.91;72308.16;4968694;28;20204;-82
2023/05/26 05:29:08;;;;;;;13.53;8.67;;;;;;;-143.21;95.15;72310.16;4968505;28;20220;-82
2023/05/26 05:31:35;;;;;;;12.73;8.53;;;;;;;-143.21;95.39;72306.19;4966517;28;20655;-83
2023/05/26 05:34:02;;;;;;;11.73;8.77;;;;;;;-143.21;95.62;72308.16;4970490;28;20233;-81
2023/05/26 05:36:29;;;;;;;12.13;7.97;;;;;;;-143.21;95.67;72302.22;4970989;28;20687;-82
2023/05/26 05:38:56;;;;;;;13.70;7.30;;;;;;;-143.21;96.38;72304.19;4974261;28;20308;-81
2023/05/26 05:41:23;;;;;;;8.03;5.50;;;;;;;-143.21;96.55;72300.25;4966982;28;20201;-81
2023/05/26 05:43:56;;;;;;;8.30;5.13;;;;;;;-143.21;96.17;72294.28;4970546;28;20212;-81
2023/05/26 05:46:23;;;;;;;9.07;5.60;;;;;;;-143.21;96.22;72290.31;4965070;28;20204;-82
2023/05/26 05:48:50;;;;;;;8.80;5.60;;;;;;;-143.21;94.90;72280.41;4966669;28;20664;-81
2023/05/26 05:51:17;;;;;;;7.73;6.10;;;;;;;-143.21;94.62;72274.47;4968765;28;20213;-82
2023/05/26 05:53:50;;;;;;;7.57;5.80;;;;;;;-143.21;93.97;72268.50;4967404;28;20208;-75
2023/05/26 05:56:17;;;;;;;16.60;6.60;;;;;;;-143.21;93.42;72256.59;4969699;28;20196;-75
2023/05/26 05:58:43;;;;;;;9.27;6.50;;;;;;;-143.21;93.12;72266.53;4969361;28;20320;-75
2023/05/26 06:01:12;;;;;;;14.20;6.60;;;;;;;-143.21;92.33;72268.50;4969583;28;20208;-75
2023/05/26 06:03:38;;;;;;;8.63;6.43;;;;;;;-143.21;91.74;72264.53;4969760;28;20204;-76
2023/05/26 06:06:06;;;;;;;14.00;7.00;;;;;;;-143.21;91.81;72248.66;4960407;28;20193;-75
2023/05/26 06:08:32;;;;;;;12.37;7.80;;;;;;;-143.21;92.17;72244.72;4969338;28;20663;-75
2023/05/26 06:10:59;;;;;;;12.33;8.40;;;;;;;-143.21;92.16;72234.78;4968275;28;20648;-75
2023/05/26 06:13:26;;;;;;;15.77;9.00;;;;;;;-143.21;92.68;72222.91;4968611;28;20220;-75
2023/05/26 06:15:53;;;;;;;11.53;8.90;;;;;;;-143.21;93.07;72216.94;4964627;28;20213;-76
2023/05/26 06:18:21;;;;;;;21.57;10.30;;;;;;;-143.21;93.36;72207.03;4967977;28;20672;-76
2023/05/26 06:20:48;;;;;;;14.60;9.60;;;;;;;-143.21;93.70;72211.00;4966466;28;20201;-75
2023/05/26 06:23:15;;;;;;;22.53;10.00;;;;;;;-143.21;93.77;72205.03;4968553;28;20200;-75
2023/05/26 06:25:42;;;;;;;16.10;9.87;;;;;;;-143.21;93.46;72197.13;4965085;28;20208;-75
2023/05/26 06:28:08;;;;;;;15.13;9.77;;;;;;;-143.21;93.76;72181.25;4966104;28;20259;-75
2023/05/26 06:30:35;;;;;;;15.13;9.33;;;;;;;-143.21;92.68;72167.38;4965999;28;20656;-76
2023/05/26 06:33:02;;;;;;;17.47;9.57;;;;;;;-143.21;93.18;72171.34;4967424;28;20240;-76
2023/05/26 06:35:30;;;;;;;16.07;8.87;;;;;;;-143.21;93.21;72171.34;4964864;28;20205;-76
2023/05/26 06:37:57;;;;;;;13.03;8.63;;;;;;;-143.21;92.67;72155.47;4966762;28;20224;-76
2023/05/26 06:40:24;;;;;;;11.87;8.80;;;;;;;-143.21;92.50;72151.50;4964442;28;20194;-76
2023/05/26 06:42:50;;;;;;;13.17;6.93;;;;;;;-143.21;91.73;72143.56;4967113;28;20196;-76
2023/05/26 06:45:17;;;;;;;10.50;6.70;;;;;;;-143.21;88.77;72143.56;4965470;28;20580;-76
2023/05/26 06:47:44;;;;;;;12.13;6.10;;;;;;;-143.21;87.45;72143.56;4962949;28;20196;-75
2023/05/26 06:50:11;;;;;;;11.30;6.70;;;;;;;-143.21;87.67;72131.69;4964640;28;20221;-75
2023/05/26 06:52:39;;;;;;;10.33;6.83;;;;;;;-143.21;87.97;72131.69;4963023;28;20256;-76
2023/05/26 06:55:07;;;;;;;13.47;6.83;;;;;;;-143.21;88.42;72121.75;4962249;28;20288;-76
2023/05/26 06:57:34;;;;;;;13.20;6.77;;;;;;;-143.21;87.78;72107.88;4964367;28;20197;-76
2023/05/26 07:00:00;;;;;;;9.80;6.30;;;;;;;-143.21;87.43;72095.97;4964489;28;20204;-76
2023/05/26 07:02:27;;;;;;;11.50;6.37;;;;;;;-143.21;86.47;72084.06;4966864;28;20664;-76
2023/05/26 07:04:54;;;;;;;15.70;7.13;;;;;;;-143.21;86.06;72068.22;4963461;28;20205;-76
2023/05/26 07:07:21;;;;;;;10.30;6.50;;;;;;;-143.21;85.20;72062.25;4968904;28;20208;-75
2023/05/26 07:09:52;;;;;;;12.93;6.80;;;;;;;-143.21;84.62;72052.34;4966455;28;20216;-76
2023/05/26 07:12:20;;;;;;;10.53;5.90;;;;;;;-143.21;83.22;72046.41;4964801;28;20203;-76
2023/05/26 07:14:47;;;;;;;8.97;6.10;;;;;;;-143.21;82.42;72034.50;4967572;28;20201;-76
2023/05/26 07:17:23;;;;;;;8.63;5.77;;;;;;;-143.21;83.13;72042.44;4965161;28;20212;-76
2023/05/26 07:19:56;;;;;;;14.47;6.27;;;;;;;-143.21;84.14;72032.53;4964735;28;20343;-75
2023/05/26 07:22:23;;;;;;;9.57;6.40;;;;;;;-143.21;83.60;72030.53;4966038;28;20692;-78
2023/05/26 07:24:51;;;;;;;12.63;6.90;;;;;;;-143.21;83.73;72016.66;4968030;28;20200;-78
2023/05/26 07:27:18;;;;;;;11.37;6.27;;;;;;;-143.21;83.89;72004.75;4968181;28;20255;-78
2023/05/26 07:29:45;;;;;;;10.13;6.10;;;;;;;-143.21;84.00;71994.84;4967365;28;20221;-79
2023/05/26 07:32:12;;;;;;;9.23;6.03;;;;;;;-143.21;83.23;71986.91;4969395;28;20268;-78
2023/05/26 07:34:38;;;;;;;7.97;5.87;;;;;;;-143.21;83.10;71977.00;4969370;28;20207;-79
2023/05/26 07:37:05;;;;;;;7.57;5.57;;;;;;;-143.21;82.63;71955.19;4972142;28;20211;-79
2023/05/26 07:39:32;;;;;;;9.87;6.23;;;;;;;-143.21;82.97;71953.19;4972691;28;20200;-79
2023/05/26 07:42:00;;;;;;;12.15;6.88;;;;;;;-143.21;83.22;71947.25;4969615;28;20208;-77
2023/05/26 07:44:27;;;;;;;12.88;6.63;;;;;;;-143.21;83.26;71931.38;4969958;28;20730;-79
2023/05/26 07:46:54;;;;;;;9.45;6.60;;;;;;;-143.21;83.17;71925.44;4969523;28;20205;-79
2023/05/26 07:49:20;;;;;;;11.27;6.07;;;;;;;-143.21;83.22;71911.56;4971130;28;20216;-79
2023/05/26 07:51:47;;;;;;;16.33;6.90;;;;;;;-143.21;80.68;71893.72;4969546;28;20205;-78
2023/05/26 07:54:14;;;;;;;9.00;6.30;;;;;;;-143.21;80.77;71889.75;4972266;28;20208;-79
2023/05/26 07:56:41;;;;;;;10.48;6.57;;;;;;;-143.21;80.67;71877.84;4972342;28;20197;-79
2023/05/26 07:59:09;;;;;;;8.55;6.57;;;;;;;-143.21;80.73;71863.97;4971316;28;20310;-78
2023/05/26 08:01:36;;;;;;;10.00;6.20;;;;;;;-143.21;80.03;71856.03;4968570;28;20208;-80
2023/05/26 08:04:03;;;;;;;10.27;6.07;;;;;;;-143.21;79.68;71844.16;4968308;28;20263;-79
2023/05/26 08:06:31;;;;;;;10.55;6.32;;;;;;;-143.21;79.18;71834.22;4972168;28;20204;-79
2023/05/26 08:08:58;;;;;;;7.80;6.40;;;;;;;-143.21;79.10;71822.34;4971549;28;20994;-80
2023/05/26 08:11:25;;;;;;;7.28;6.10;;;;;;;-143.21;78.29;71810.44;4968535;28;20190;-80
2023/05/26 08:13:52;;;;;;;8.90;6.25;;;;;;;-143.21;77.49;71794.56;4971648;28;20315;-80
2023/05/26 08:16:20;;;;;;;10.30;6.40;;;;;;;-143.21;76.77;71778.72;4970596;28;20912;-80
2023/05/26 08:18:47;;;;;;;10.98;6.68;;;;;;;-143.21;76.59;71768.78;4972095;28;20197;-77
2023/05/26 08:21:14;;;;;;;16.88;7.30;;;;;;;-143.21;75.71;71760.88;4969001;28;20231;-79
2023/05/26 08:23:41;;;;;;;12.27;7.25;;;;;;;-143.21;76.24;71743.00;4970099;28;20213;-80
2023/05/26 08:26:08;;;;;;;9.32;6.13;;;;;;;-143.21;76.27;71737.06;4968953;28;20200;-80
2023/05/26 08:28:35;;;;;;;12.05;6.70;;;;;;;-143.21;75.55;71725.16;4966246;28;20656;-80
2023/05/26 08:31:02;;;;;;;13.45;6.40;;;;;;;-143.21;75.55;71711.28;4970341;28;20193;-79
2023/05/26 08:33:30;;;;;;;11.40;7.35;;;;;;;-143.21;75.67;71697.41;4969202;28;20237;-80
2023/05/26 08:35:57;;;;;;;9.93;7.43;;;;;;;-143.21;74.44;71677.59;4969748;28;20667;-80
2023/05/26 08:38:24;;;;;;;14.52;8.68;;;;;;;-143.21;74.67;71671.63;4971727;28;20205;-81
2023/05/26 08:40:55;;;;;;;12.18;8.27;;;;;;;-143.21;75.82;71659.75;4970760;28;20197;-78
2023/05/26 08:43:29;;;;;;;15.68;8.52;;;;;;;-143.21;76.56;71651.81;4967365;28;20275;-79
2023/05/26 08:45:57;;;;;;;13.68;9.13;;;;;;;-143.21;76.33;71647.84;4969951;28;21004;-74
2023/05/26 08:48:25;;;;;;;16.05;8.90;;;;;;;-143.21;74.84;71637.94;4964135;28;20216;-75
2023/05/26 08:50:57;;;;;;;11.88;8.82;;;;;;;-143.21;75.09;71641.91;4965539;28;20311;-76
2023/05/26 08:53:25;;;;;;;15.07;10.07;;;;;;;-143.21;74.61;71630.00;4967675;28;20205;-76
2023/05/26 08:55:52;;;;;;;15.07;8.65;;;;;;;-143.21;74.43;71618.09;4967499;28;20269;-76
2023/05/26 08:58:20;;;;;;;15.52;8.68;;;;;;;-143.21;73.12;71602.25;4964323;28;20228;-76
2023/05/26 09:00:47;;;;;;;13.00;8.68;;;;;;;-143.21;73.09;71590.34;4968876;28;20259;-77
2023/05/26 09:03:14;;;;;;;19.15;9.65;;;;;;;-143.21;72.35;71564.56;4967268;28;20264;-76
2023/05/26 09:05:40;;;;;;;16.70;8.77;;;;;;;-143.21;71.40;71548.72;4970007;28;20201;-76
2023/05/26 09:08:12;;;;;;;12.00;8.07;;;;;;;-143.21;71.83;71526.91;4969754;28;20200;-75
2023/05/26 09:10:39;;;;;;;13.98;7.93;;;;;;;-143.21;71.33;71495.19;4963297;28;20236;-75
2023/05/26 09:13:07;;;;;;;12.45;7.35;;;;;;;-143.21;69.55;71481.28;4965309;28;20208;-75
2023/05/26 09:15:35;;;;;;;19.58;7.97;;;;;;;-143.21;69.09;71473.38;4966623;28;20220;-75
2023/05/26 09:18:06;;;;;;;12.35;7.57;;;;;;;-143.21;69.08;71467.41;4964367;28;20203;-75
2023/05/26 09:20:33;;;;;;;12.80;7.43;;;;;;;-143.21;68.98;71471.38;4968272;28;20197;-75
2023/05/26 09:23:00;;;;;;;16.20;7.90;;;;;;;-143.21;70.66;71469.41;4968093;28;20200;-75
2023/05/26 09:25:32;;;;;;;12.77;7.75;;;;;;;-143.21;69.59;71465.44;4968017;28;20638;-75
2023/05/26 09:28:03;;;;;;;14.45;7.15;;;;;;;-143.21;69.47;71457.50;4970551;28;20235;-75
2023/05/26 09:30:36;;;;;;;6.88;5.32;;;;;;;-143.21;68.24;71451.56;4966364;28;20216;-75
2023/05/26 09:33:05;;;;;;;13.23;6.32;;;;;;;-143.21;67.03;71441.63;4967597;28;20225;-75
2023/05/26 09:35:36;;;;;;;9.80;6.32;;;;;;;-143.21;67.36;71461.47;4966499;28;20702;-75
2023/05/26 09:38:05;;;;;;;8.15;6.50;;;;;;;-143.21;69.12;71467.41;4970720;28;20196;-75
2023/05/26 09:40:33;;;;;;;13.30;7.55;;;;;;;-143.21;69.98;71455.53;4969003;28;20276;-75
2023/05/26 09:43:00;;;;;;;13.98;7.82;;;;;;;-143.21;70.76;71463.44;4967481;28;20197;-76
2023/05/26 09:45:34;;;;;;;13.02;8.02;;;;;;;-143.21;71.31;71463.44;4967485;28;20240;-75
2023/05/26 09:48:02;;;;;;;16.25;8.70;;;;;;;-143.21;71.58;71457.50;4967968;28;20286;-74
2023/05/26 09:50:31;;;;;;;11.68;8.38;;;;;;;-143.21;71.13;71445.59;4967969;28;20224;-75
2023/05/26 09:52:58;;;;;;;11.25;8.15;;;;;;;-143.21;71.00;71457.50;4969444;28;20209;-75
2023/05/26 09:55:24;;;;;;;14.43;8.50;;;;;;;-143.21;69.87;71455.53;4968824;28;20224;-75
2023/05/26 09:57:54;;;;;;;11.77;7.20;;;;;;;-143.21;69.93;71471.38;4966179;28;20197;-75
2023/05/26 10:00:22;;;;;;;10.50;6.70;;;;;;;-143.21;69.45;71491.22;4967495;28;20201;-75
2023/05/26 10:02:50;;;;;;;11.48;7.78;;;;;;;-143.21;70.65;71509.06;4969467;28;20288;-75
2023/05/26 10:05:17;;;;;;;12.88;8.48;;;;;;;-143.21;73.67;71528.88;4969642;28;20276;-74
2023/05/26 10:07:45;;;;;;;14.45;7.70;;;;;;;-143.21;74.99;71534.81;4963755;28;20200;-74
2023/05/26 10:10:14;;;;;;;9.77;6.78;;;;;;;-143.21;75.13;71568.53;4966853;28;20217;-74
2023/05/26 10:12:43;;;;;;;8.07;5.70;;;;;;;-143.21;74.85;71584.41;4967081;28;20632;-75
2023/05/26 10:15:11;;;;;;;9.60;5.80;;;;;;;-143.21;73.23;71586.38;4967938;28;20663;-76
2023/05/26 10:17:39;;;;;;;10.18;5.65;;;;;;;-143.21;72.13;71592.31;4969183;28;20208;-77
2023/05/26 10:20:08;;;;;;;8.05;5.40;;;;;;;-143.21;72.23;71596.28;4970574;28;20204;-87
2023/05/26 10:22:43;;;;;;;7.75;5.53;;;;;;;-143.21;71.71;71596.28;4967926;28;20287;-85
2023/05/26 10:25:19;;;;;;;6.20;4.68;;;;;;;-143.21;70.21;71602.25;4971765;28;20679;-85
2023/05/26 10:27:51;;;;;;;5.60;4.93;;;;;;;-143.21;70.31;71604.22;4970205;28;20204;-85
2023/05/26 10:30:21;;;;;;;9.20;5.15;;;;;;;-143.21;70.06;71606.22;4970598;28;20252;-83
2023/05/26 10:32:49;;;;;;;9.32;4.78;;;;;;;-143.21;69.91;71602.25;4969229;28;20236;-83
2023/05/26 10:35:25;;;;;;;7.90;4.75;;;;;;;-143.21;69.49;71596.28;4971181;28;20193;-84
2023/05/26 10:37:56;;;;;;;11.00;4.63;;;;;;;-143.21;69.45;71598.28;4970739;28;20248;-84
2023/05/26 10:40:31;;;;;;;12.18;4.57;;;;;;;-143.21;68.82;71588.38;4969202;28;20217;-84
2023/05/26 10:43:02;;;;;;;11.07;4.43;;;;;;;-143.21;68.60;71598.28;4964655;28;20205;-85
2023/05/26 10:45:34;;;;;;;7.35;4.63;;;;;;;-143.21;68.60;71610.16;4968163;28;20197;-84
2023/05/26 10:48:08;;;;;;;6.53;4.85;;;;;;;-143.21;68.80;71596.28;4970986;28;20627;-87
2023/05/26 10:51:12;;;;;;;6.15;4.45;;;;;;;-143.21;68.78;71590.34;4964025;28;20212;-84
2023/05/26 10:53:45;;;;;;;4.80;4.30;;;;;;;-143.21;68.34;71590.34;4966824;28;20643;-85
2023/05/26 10:56:14;;;;;;;5.65;4.63;;;;;;;-143.21;68.40;71582.41;4963651;28;20675;-83
2023/05/26 10:58:45;;;;;;;9.63;4.60;;;;;;;-143.21;69.13;71572.50;4968974;28;20203;-84
2023/05/26 11:01:16;;;;;;;5.28;3.85;;;;;;;-143.21;69.34;71576.47;4971380;28;20207;-84
2023/05/26 11:03:45;;;;;;;8.38;4.53;;;;;;;-143.21;69.59;71596.28;4971076;28;20205;-83
2023/05/26 11:06:13;;;;;;;7.80;4.10;;;;;;;-143.21;68.70;71602.25;4967192;28;20195;-83
2023/05/26 11:08:41;;;;;;;8.57;3.53;;;;;;;-143.21;67.77;71604.22;4963163;28;20237;-84
2023/05/26 11:11:09;;;;;;;4.53;3.42;;;;;;;-143.21;66.62;71604.22;4970014;28;20228;-83
2023/05/26 11:13:48;;;;;;;5.43;4.10;;;;;;;-143.21;66.61;71628.00;4969797;28;20201;-84
2023/05/26 11:16:23;;;;;;;6.88;3.10;;;;;;;-143.21;65.18;71633.97;4969529;28;20201;-83
2023/05/26 11:18:52;;;;;;;6.85;3.25;;;;;;;-143.21;65.04;71639.91;4969654;28;20199;-82
2023/05/26 11:21:20;;;;;;;5.10;3.30;;;;;;;-143.21;65.46;71633.97;4966960;28;20209;-82
2023/05/26 11:23:47;;;;;;;4.05;3.25;;;;;;;-143.21;65.75;71626.03;4970253;28;20203;-83
2023/05/26 11:26:15;;;;;;;3.83;3.28;;;;;;;-143.21;65.27;71606.22;4966560;28;20288;-83
2023/05/26 11:28:44;;;;;;;4.20;2.92;;;;;;;-143.21;62.94;71604.22;4966687;28;20196;-83
2023/05/26 11:31:12;;;;;;;3.38;2.80;;;;;;;-143.21;61.96;71586.38;4970051;28;20228;-83
2023/05/26 11:33:42;;;;;;;6.25;3.10;;;;;;;-143.21;61.69;71574.47;4970116;28;20227;-84
2023/05/26 11:36:11;;;;;;;11.00;5.35;;;;;;;-143.21;65.06;71580.44;4968471;28;20292;-86
2023/05/26 11:38:40;;;;;;;4.38;3.85;;;;;;;-143.21;65.00;71578.44;4970359;28;20259;-84
2023/05/26 11:41:08;;;;;;;5.60;4.60;;;;;;;-143.21;65.82;71580.44;4969271;28;20241;-84
2023/05/26 11:43:35;;;;;;;7.40;4.78;;;;;;;-143.21;67.41;71572.50;4969317;28;20211;-83
2023/05/26 11:46:03;;;;;;;6.50;4.78;;;;;;;-143.21;68.00;71558.63;4972831;28;20227;-83
2023/05/26 11:48:39;;;;;;;7.82;4.88;;;;;;;-143.21;67.45;71546.72;4973556;28;20385;-84